sensor_id;sensor_type;location;lat;lon;timestamp;P1;durP1;ratioP1;P2;durP2;ratioP2
297;SDS011;133;49.626;9.680;2022-11-20T00:01:39;25.70;;;15.13;;
297;SDS011;133;49.626;9.680;2022-11-20T00:04:05;30.53;;;16.47;;
297;SDS011;133;49.626;9.680;2022-11-20T00:06:31;26.70;;;14.83;;
297;SDS011;133;49.626;9.680;2022-11-20T00:08:57;36.23;;;16.87;;
297;SDS011;133;49.626;9.680;2022-11-20T00:11:26;31.37;;;17.20;;
297;SDS011;133;49.626;9.680;2022-11-20T00:13:53;27.93;;;16.50;;
297;SDS011;133;49.626;9.680;2022-11-20T00:16:26;27.60;;;15.30;;
297;SDS011;133;49.626;9.680;2022-11-20T00:18:53;26.67;;;15.40;;
297;SDS011;133;49.626;9.680;2022-11-20T00:21:26;28.87;;;16.50;;
297;SDS011;133;49.626;9.680;2022-11-20T00:23:53;27.07;;;15.30;;
297;SDS011;133;49.626;9.680;2022-11-20T00:26:20;29.70;;;15.50;;
297;SDS011;133;49.626;9.680;2022-11-20T00:28:53;30.33;;;16.30;;
297;SDS011;133;49.626;9.680;2022-11-20T00:31:22;27.80;;;16.23;;
297;SDS011;133;49.626;9.680;2022-11-20T00:33:48;36.07;;;19.50;;
297;SDS011;133;49.626;9.680;2022-11-20T00:36:15;31.80;;;18.30;;
297;SDS011;133;49.626;9.680;2022-11-20T00:38:42;33.50;;;19.83;;
297;SDS011;133;49.626;9.680;2022-11-20T00:41:10;31.20;;;18.80;;
297;SDS011;133;49.626;9.680;2022-11-20T00:43:37;35.60;;;19.40;;
297;SDS011;133;49.626;9.680;2022-11-20T00:48:31;30.77;;;18.07;;
297;SDS011;133;49.626;9.680;2022-11-20T00:50:57;33.00;;;18.50;;
297;SDS011;133;49.626;9.680;2022-11-20T00:53:23;37.27;;;17.00;;
297;SDS011;133;49.626;9.680;2022-11-20T00:55:53;25.17;;;14.60;;
297;SDS011;133;49.626;9.680;2022-11-20T00:58:23;25.47;;;15.23;;
297;SDS011;133;49.626;9.680;2022-11-20T01:00:49;30.50;;;17.33;;
297;SDS011;133;49.626;9.680;2022-11-20T01:03:19;29.77;;;16.63;;
297;SDS011;133;49.626;9.680;2022-11-20T01:05:44;51.27;;;28.03;;
297;SDS011;133;49.626;9.680;2022-11-20T01:08:10;37.13;;;22.13;;
297;SDS011;133;49.626;9.680;2022-11-20T01:10:36;36.13;;;20.60;;
297;SDS011;133;49.626;9.680;2022-11-20T01:13:01;29.70;;;16.57;;
297;SDS011;133;49.626;9.680;2022-11-20T01:15:46;25.60;;;14.63;;
297;SDS011;133;49.626;9.680;2022-11-20T01:18:11;33.40;;;17.90;;
297;SDS011;133;49.626;9.680;2022-11-20T01:20:37;32.37;;;17.20;;
297;SDS011;133;49.626;9.680;2022-11-20T01:23:03;27.50;;;16.33;;
297;SDS011;133;49.626;9.680;2022-11-20T01:25:28;34.13;;;17.60;;
297;SDS011;133;49.626;9.680;2022-11-20T01:27:54;29.90;;;17.83;;
297;SDS011;133;49.626;9.680;2022-11-20T01:30:20;31.20;;;18.00;;
297;SDS011;133;49.626;9.680;2022-11-20T01:32:46;32.07;;;17.47;;
297;SDS011;133;49.626;9.680;2022-11-20T01:35:11;35.30;;;18.23;;
297;SDS011;133;49.626;9.680;2022-11-20T01:37:37;28.03;;;15.87;;
297;SDS011;133;49.626;9.680;2022-11-20T01:40:03;30.87;;;17.03;;
297;SDS011;133;49.626;9.680;2022-11-20T01:42:31;29.57;;;16.80;;
297;SDS011;133;49.626;9.680;2022-11-20T01:48:31;31.00;;;17.93;;
297;SDS011;133;49.626;9.680;2022-11-20T01:51:03;29.90;;;16.80;;
297;SDS011;133;49.626;9.680;2022-11-20T01:53:32;34.80;;;17.67;;
297;SDS011;133;49.626;9.680;2022-11-20T01:56:01;26.93;;;15.77;;
297;SDS011;133;49.626;9.680;2022-11-20T01:58:32;28.23;;;15.90;;
297;SDS011;133;49.626;9.680;2022-11-20T02:01:00;27.83;;;16.50;;
297;SDS011;133;49.626;9.680;2022-11-20T02:03:27;27.97;;;14.90;;
297;SDS011;133;49.626;9.680;2022-11-20T02:08:40;30.33;;;15.90;;
297;SDS011;133;49.626;9.680;2022-11-20T02:11:06;31.60;;;16.37;;
297;SDS011;133;49.626;9.680;2022-11-20T02:13:32;32.47;;;16.67;;
297;SDS011;133;49.626;9.680;2022-11-20T02:16:08;30.93;;;17.70;;
297;SDS011;133;49.626;9.680;2022-11-20T02:18:36;36.37;;;18.73;;
297;SDS011;133;49.626;9.680;2022-11-20T02:21:07;32.07;;;17.07;;
297;SDS011;133;49.626;9.680;2022-11-20T02:23:39;30.73;;;17.30;;
297;SDS011;133;49.626;9.680;2022-11-20T02:26:20;28.90;;;16.50;;
297;SDS011;133;49.626;9.680;2022-11-20T02:28:48;31.90;;;16.77;;
297;SDS011;133;49.626;9.680;2022-11-20T02:31:14;31.40;;;17.90;;
297;SDS011;133;49.626;9.680;2022-11-20T02:33:40;28.07;;;15.77;;
297;SDS011;133;49.626;9.680;2022-11-20T02:36:07;29.10;;;15.93;;
297;SDS011;133;49.626;9.680;2022-11-20T02:38:36;33.90;;;16.60;;
297;SDS011;133;49.626;9.680;2022-11-20T02:41:02;34.73;;;17.53;;
297;SDS011;133;49.626;9.680;2022-11-20T02:43:28;28.53;;;15.80;;
297;SDS011;133;49.626;9.680;2022-11-20T02:45:53;28.73;;;16.40;;
297;SDS011;133;49.626;9.680;2022-11-20T02:48:19;25.97;;;15.40;;
297;SDS011;133;49.626;9.680;2022-11-20T02:50:44;27.40;;;15.87;;
297;SDS011;133;49.626;9.680;2022-11-20T02:53:10;25.30;;;15.90;;
297;SDS011;133;49.626;9.680;2022-11-20T02:55:36;25.67;;;14.20;;
297;SDS011;133;49.626;9.680;2022-11-20T02:58:01;22.97;;;13.73;;
297;SDS011;133;49.626;9.680;2022-11-20T03:00:27;26.97;;;15.27;;
297;SDS011;133;49.626;9.680;2022-11-20T03:02:56;26.87;;;15.47;;
297;SDS011;133;49.626;9.680;2022-11-20T03:05:22;30.07;;;16.27;;
297;SDS011;133;49.626;9.680;2022-11-20T03:07:48;28.70;;;15.20;;
297;SDS011;133;49.626;9.680;2022-11-20T03:10:13;26.70;;;15.20;;
297;SDS011;133;49.626;9.680;2022-11-20T03:12:39;28.33;;;15.77;;
297;SDS011;133;49.626;9.680;2022-11-20T03:15:05;24.20;;;13.90;;
297;SDS011;133;49.626;9.680;2022-11-20T03:17:31;23.83;;;14.33;;
297;SDS011;133;49.626;9.680;2022-11-20T03:19:56;25.93;;;15.00;;
297;SDS011;133;49.626;9.680;2022-11-20T03:22:22;27.03;;;14.47;;
297;SDS011;133;49.626;9.680;2022-11-20T03:24:47;24.70;;;14.30;;
297;SDS011;133;49.626;9.680;2022-11-20T03:27:13;25.77;;;14.53;;
297;SDS011;133;49.626;9.680;2022-11-20T03:29:39;26.47;;;14.30;;
297;SDS011;133;49.626;9.680;2022-11-20T03:32:04;21.40;;;13.60;;
297;SDS011;133;49.626;9.680;2022-11-20T03:34:30;24.80;;;14.20;;
297;SDS011;133;49.626;9.680;2022-11-20T03:36:56;24.43;;;13.30;;
297;SDS011;133;49.626;9.680;2022-11-20T03:39:21;25.30;;;13.57;;
297;SDS011;133;49.626;9.680;2022-11-20T03:41:47;23.40;;;12.80;;
297;SDS011;133;49.626;9.680;2022-11-20T03:44:12;22.53;;;14.13;;
297;SDS011;133;49.626;9.680;2022-11-20T03:46:38;22.83;;;13.60;;
297;SDS011;133;49.626;9.680;2022-11-20T03:49:04;23.27;;;13.47;;
297;SDS011;133;49.626;9.680;2022-11-20T03:51:31;21.83;;;12.97;;
297;SDS011;133;49.626;9.680;2022-11-20T03:53:59;23.40;;;13.73;;
297;SDS011;133;49.626;9.680;2022-11-20T03:56:27;21.37;;;12.50;;
297;SDS011;133;49.626;9.680;2022-11-20T03:58:54;21.67;;;12.80;;
297;SDS011;133;49.626;9.680;2022-11-20T04:01:21;21.80;;;13.33;;
297;SDS011;133;49.626;9.680;2022-11-20T04:03:49;22.90;;;13.00;;
297;SDS011;133;49.626;9.680;2022-11-20T04:06:26;23.00;;;14.13;;
297;SDS011;133;49.626;9.680;2022-11-20T04:08:56;21.80;;;13.03;;
297;SDS011;133;49.626;9.680;2022-11-20T04:11:24;23.83;;;13.63;;
297;SDS011;133;49.626;9.680;2022-11-20T04:13:55;28.43;;;15.10;;
297;SDS011;133;49.626;9.680;2022-11-20T04:16:22;21.17;;;12.47;;
297;SDS011;133;49.626;9.680;2022-11-20T04:18:52;24.00;;;14.10;;
297;SDS011;133;49.626;9.680;2022-11-20T04:21:19;19.47;;;11.97;;
297;SDS011;133;49.626;9.680;2022-11-20T04:23:45;23.13;;;12.60;;
297;SDS011;133;49.626;9.680;2022-11-20T04:26:11;20.70;;;12.80;;
297;SDS011;133;49.626;9.680;2022-11-20T04:28:37;24.87;;;13.13;;
297;SDS011;133;49.626;9.680;2022-11-20T04:31:08;23.03;;;13.00;;
297;SDS011;133;49.626;9.680;2022-11-20T04:33:35;22.97;;;13.00;;
297;SDS011;133;49.626;9.680;2022-11-20T04:36:03;29.23;;;14.80;;
297;SDS011;133;49.626;9.680;2022-11-20T04:38:30;22.90;;;13.33;;
297;SDS011;133;49.626;9.680;2022-11-20T04:40:59;26.77;;;15.53;;
297;SDS011;133;49.626;9.680;2022-11-20T04:43:27;28.50;;;15.90;;
297;SDS011;133;49.626;9.680;2022-11-20T04:45:53;28.50;;;16.40;;
297;SDS011;133;49.626;9.680;2022-11-20T04:48:19;31.37;;;17.57;;
297;SDS011;133;49.626;9.680;2022-11-20T04:50:45;31.23;;;16.53;;
297;SDS011;133;49.626;9.680;2022-11-20T04:53:11;30.13;;;17.30;;
297;SDS011;133;49.626;9.680;2022-11-20T04:55:36;32.27;;;17.37;;
297;SDS011;133;49.626;9.680;2022-11-20T04:58:02;30.37;;;17.40;;
297;SDS011;133;49.626;9.680;2022-11-20T05:00:28;41.17;;;19.43;;
297;SDS011;133;49.626;9.680;2022-11-20T05:02:53;33.40;;;17.60;;
297;SDS011;133;49.626;9.680;2022-11-20T05:05:19;28.33;;;16.90;;
297;SDS011;133;49.626;9.680;2022-11-20T05:07:44;35.00;;;18.63;;
297;SDS011;133;49.626;9.680;2022-11-20T05:10:10;33.70;;;18.10;;
297;SDS011;133;49.626;9.680;2022-11-20T05:12:36;43.20;;;20.13;;
297;SDS011;133;49.626;9.680;2022-11-20T05:15:01;29.90;;;16.13;;
297;SDS011;133;49.626;9.680;2022-11-20T05:17:27;35.03;;;18.50;;
297;SDS011;133;49.626;9.680;2022-11-20T05:19:52;29.97;;;17.00;;
297;SDS011;133;49.626;9.680;2022-11-20T05:22:18;31.70;;;15.90;;
297;SDS011;133;49.626;9.680;2022-11-20T05:24:44;33.40;;;17.10;;
297;SDS011;133;49.626;9.680;2022-11-20T05:27:09;34.70;;;16.83;;
297;SDS011;133;49.626;9.680;2022-11-20T05:29:35;23.27;;;14.63;;
297;SDS011;133;49.626;9.680;2022-11-20T05:32:00;27.17;;;14.87;;
297;SDS011;133;49.626;9.680;2022-11-20T05:34:26;29.00;;;15.43;;
297;SDS011;133;49.626;9.680;2022-11-20T05:36:51;25.20;;;14.23;;
297;SDS011;133;49.626;9.680;2022-11-20T05:39:17;29.90;;;15.80;;
297;SDS011;133;49.626;9.680;2022-11-20T05:41:43;35.17;;;17.20;;
297;SDS011;133;49.626;9.680;2022-11-20T05:44:11;29.90;;;16.67;;
297;SDS011;133;49.626;9.680;2022-11-20T05:46:38;32.40;;;16.37;;
297;SDS011;133;49.626;9.680;2022-11-20T05:49:03;25.90;;;14.10;;
297;SDS011;133;49.626;9.680;2022-11-20T05:51:29;30.30;;;17.10;;
297;SDS011;133;49.626;9.680;2022-11-20T05:53:58;28.83;;;15.90;;
297;SDS011;133;49.626;9.680;2022-11-20T05:56:23;25.80;;;14.80;;
297;SDS011;133;49.626;9.680;2022-11-20T05:58:49;26.73;;;15.47;;
297;SDS011;133;49.626;9.680;2022-11-20T06:01:19;28.00;;;15.67;;
297;SDS011;133;49.626;9.680;2022-11-20T06:03:47;37.80;;;17.40;;
297;SDS011;133;49.626;9.680;2022-11-20T06:06:15;26.10;;;14.70;;
297;SDS011;133;49.626;9.680;2022-11-20T06:08:42;29.83;;;15.30;;
297;SDS011;133;49.626;9.680;2022-11-20T06:11:09;26.93;;;14.97;;
297;SDS011;133;49.626;9.680;2022-11-20T06:13:36;28.93;;;15.47;;
297;SDS011;133;49.626;9.680;2022-11-20T06:16:02;25.90;;;15.23;;
297;SDS011;133;49.626;9.680;2022-11-20T06:18:28;27.17;;;15.00;;
297;SDS011;133;49.626;9.680;2022-11-20T06:21:05;26.60;;;14.27;;
297;SDS011;133;49.626;9.680;2022-11-20T06:23:36;27.70;;;14.27;;
297;SDS011;133;49.626;9.680;2022-11-20T06:26:06;29.33;;;14.80;;
297;SDS011;133;49.626;9.680;2022-11-20T06:28:32;24.67;;;13.77;;
297;SDS011;133;49.626;9.680;2022-11-20T06:30:59;30.27;;;14.60;;
297;SDS011;133;49.626;9.680;2022-11-20T06:33:24;30.50;;;15.50;;
297;SDS011;133;49.626;9.680;2022-11-20T06:35:51;29.40;;;15.40;;
297;SDS011;133;49.626;9.680;2022-11-20T06:38:16;24.83;;;13.33;;
297;SDS011;133;49.626;9.680;2022-11-20T06:40:42;31.30;;;16.03;;
297;SDS011;133;49.626;9.680;2022-11-20T06:43:09;26.13;;;15.70;;
297;SDS011;133;49.626;9.680;2022-11-20T06:45:35;27.20;;;14.47;;
297;SDS011;133;49.626;9.680;2022-11-20T06:48:01;26.77;;;13.93;;
297;SDS011;133;49.626;9.680;2022-11-20T06:50:27;26.73;;;14.07;;
297;SDS011;133;49.626;9.680;2022-11-20T06:52:52;24.20;;;13.30;;
297;SDS011;133;49.626;9.680;2022-11-20T06:55:18;26.50;;;15.10;;
297;SDS011;133;49.626;9.680;2022-11-20T06:57:43;25.87;;;13.90;;
297;SDS011;133;49.626;9.680;2022-11-20T07:00:09;25.40;;;14.37;;
297;SDS011;133;49.626;9.680;2022-11-20T07:02:36;28.47;;;14.57;;
297;SDS011;133;49.626;9.680;2022-11-20T07:05:01;28.97;;;14.90;;
297;SDS011;133;49.626;9.680;2022-11-20T07:07:27;27.00;;;14.57;;
297;SDS011;133;49.626;9.680;2022-11-20T07:09:53;24.20;;;12.83;;
297;SDS011;133;49.626;9.680;2022-11-20T07:12:18;21.30;;;12.77;;
297;SDS011;133;49.626;9.680;2022-11-20T07:14:44;31.00;;;16.27;;
297;SDS011;133;49.626;9.680;2022-11-20T07:17:09;23.73;;;13.43;;
297;SDS011;133;49.626;9.680;2022-11-20T07:19:35;25.60;;;13.17;;
297;SDS011;133;49.626;9.680;2022-11-20T07:22:00;26.60;;;14.30;;
297;SDS011;133;49.626;9.680;2022-11-20T07:24:26;26.70;;;14.70;;
297;SDS011;133;49.626;9.680;2022-11-20T07:26:52;23.60;;;13.57;;
297;SDS011;133;49.626;9.680;2022-11-20T07:29:17;27.20;;;14.23;;
297;SDS011;133;49.626;9.680;2022-11-20T07:31:43;28.17;;;14.70;;
297;SDS011;133;49.626;9.680;2022-11-20T07:34:08;25.00;;;13.57;;
297;SDS011;133;49.626;9.680;2022-11-20T07:36:34;25.00;;;12.93;;
297;SDS011;133;49.626;9.680;2022-11-20T07:39:00;26.70;;;15.03;;
297;SDS011;133;49.626;9.680;2022-11-20T07:41:26;27.10;;;14.43;;
297;SDS011;133;49.626;9.680;2022-11-20T07:43:52;24.03;;;13.73;;
297;SDS011;133;49.626;9.680;2022-11-20T07:46:18;25.30;;;13.90;;
297;SDS011;133;49.626;9.680;2022-11-20T07:48:43;24.73;;;13.60;;
297;SDS011;133;49.626;9.680;2022-11-20T07:51:09;22.13;;;13.20;;
297;SDS011;133;49.626;9.680;2022-11-20T07:53:35;30.80;;;15.93;;
297;SDS011;133;49.626;9.680;2022-11-20T07:56:01;31.10;;;15.90;;
297;SDS011;133;49.626;9.680;2022-11-20T07:58:30;30.40;;;17.07;;
297;SDS011;133;49.626;9.680;2022-11-20T08:00:58;34.70;;;18.70;;
297;SDS011;133;49.626;9.680;2022-11-20T08:03:30;45.33;;;20.90;;
297;SDS011;133;49.626;9.680;2022-11-20T08:05:58;26.87;;;15.00;;
297;SDS011;133;49.626;9.680;2022-11-20T08:08:25;26.27;;;15.37;;
297;SDS011;133;49.626;9.680;2022-11-20T08:10:51;23.30;;;13.47;;
297;SDS011;133;49.626;9.680;2022-11-20T08:13:17;29.73;;;16.03;;
297;SDS011;133;49.626;9.680;2022-11-20T08:16:01;27.67;;;14.83;;
297;SDS011;133;49.626;9.680;2022-11-20T08:18:27;27.57;;;16.10;;
297;SDS011;133;49.626;9.680;2022-11-20T08:20:52;26.20;;;14.60;;
297;SDS011;133;49.626;9.680;2022-11-20T08:23:18;26.33;;;14.17;;
297;SDS011;133;49.626;9.680;2022-11-20T08:25:43;25.27;;;14.67;;
297;SDS011;133;49.626;9.680;2022-11-20T08:28:14;22.23;;;13.63;;
297;SDS011;133;49.626;9.680;2022-11-20T08:30:40;23.33;;;13.50;;
297;SDS011;133;49.626;9.680;2022-11-20T08:33:06;21.60;;;12.50;;
297;SDS011;133;49.626;9.680;2022-11-20T08:35:36;21.93;;;12.07;;
297;SDS011;133;49.626;9.680;2022-11-20T08:38:04;18.40;;;10.73;;
297;SDS011;133;49.626;9.680;2022-11-20T08:40:30;20.27;;;10.90;;
297;SDS011;133;49.626;9.680;2022-11-20T08:42:56;19.57;;;11.20;;
297;SDS011;133;49.626;9.680;2022-11-20T08:45:22;18.87;;;11.23;;
297;SDS011;133;49.626;9.680;2022-11-20T08:47:48;20.27;;;11.80;;
297;SDS011;133;49.626;9.680;2022-11-20T08:50:14;19.07;;;11.20;;
297;SDS011;133;49.626;9.680;2022-11-20T08:52:41;17.40;;;10.70;;
297;SDS011;133;49.626;9.680;2022-11-20T08:55:08;17.97;;;10.70;;
297;SDS011;133;49.626;9.680;2022-11-20T08:57:37;17.33;;;10.30;;
297;SDS011;133;49.626;9.680;2022-11-20T09:00:04;16.10;;;9.67;;
297;SDS011;133;49.626;9.680;2022-11-20T09:02:31;15.97;;;9.87;;
297;SDS011;133;49.626;9.680;2022-11-20T09:04:57;17.93;;;9.80;;
297;SDS011;133;49.626;9.680;2022-11-20T09:07:23;28.00;;;14.97;;
297;SDS011;133;49.626;9.680;2022-11-20T09:09:48;26.97;;;16.00;;
297;SDS011;133;49.626;9.680;2022-11-20T09:12:14;27.87;;;16.03;;
297;SDS011;133;49.626;9.680;2022-11-20T09:14:40;24.87;;;14.93;;
297;SDS011;133;49.626;9.680;2022-11-20T09:17:05;27.33;;;15.23;;
297;SDS011;133;49.626;9.680;2022-11-20T09:19:32;27.50;;;15.40;;
297;SDS011;133;49.626;9.680;2022-11-20T09:21:58;32.40;;;16.67;;
297;SDS011;133;49.626;9.680;2022-11-20T09:24:25;29.23;;;15.87;;
297;SDS011;133;49.626;9.680;2022-11-20T09:26:51;27.93;;;15.43;;
297;SDS011;133;49.626;9.680;2022-11-20T09:29:16;31.37;;;17.37;;
297;SDS011;133;49.626;9.680;2022-11-20T09:31:42;36.33;;;18.40;;
297;SDS011;133;49.626;9.680;2022-11-20T09:34:07;32.93;;;17.73;;
297;SDS011;133;49.626;9.680;2022-11-20T09:36:33;30.70;;;16.70;;
297;SDS011;133;49.626;9.680;2022-11-20T09:38:59;29.93;;;15.70;;
297;SDS011;133;49.626;9.680;2022-11-20T09:44:40;29.53;;;15.20;;
297;SDS011;133;49.626;9.680;2022-11-20T09:56:00;25.10;;;14.00;;
297;SDS011;133;49.626;9.680;2022-11-20T09:58:35;21.47;;;13.00;;
297;SDS011;133;49.626;9.680;2022-11-20T10:01:11;27.23;;;14.27;;
297;SDS011;133;49.626;9.680;2022-11-20T10:06:30;30.43;;;15.20;;
297;SDS011;133;49.626;9.680;2022-11-20T10:25:19;16.13;;;10.80;;
297;SDS011;133;49.626;9.680;2022-11-20T10:28:09;22.17;;;13.20;;
297;SDS011;133;49.626;9.680;2022-11-20T10:30:43;19.47;;;11.70;;
297;SDS011;133;49.626;9.680;2022-11-20T10:33:21;19.00;;;11.70;;
297;SDS011;133;49.626;9.680;2022-11-20T10:35:53;15.20;;;10.60;;
297;SDS011;133;49.626;9.680;2022-11-20T10:38:34;27.70;;;14.20;;
297;SDS011;133;49.626;9.680;2022-11-20T10:41:12;15.20;;;10.37;;
297;SDS011;133;49.626;9.680;2022-11-20T10:44:03;14.93;;;9.50;;
297;SDS011;133;49.626;9.680;2022-11-20T10:46:39;16.23;;;10.50;;
297;SDS011;133;49.626;9.680;2022-11-20T10:49:15;15.83;;;10.80;;
297;SDS011;133;49.626;9.680;2022-11-20T10:51:48;14.13;;;10.17;;
297;SDS011;133;49.626;9.680;2022-11-20T10:54:32;15.47;;;10.90;;
297;SDS011;133;49.626;9.680;2022-11-20T11:00:17;16.87;;;11.87;;
297;SDS011;133;49.626;9.680;2022-11-20T11:02:44;17.97;;;13.00;;
297;SDS011;133;49.626;9.680;2022-11-20T11:07:51;13.90;;;10.10;;
297;SDS011;133;49.626;9.680;2022-11-20T11:10:24;11.60;;;8.87;;
297;SDS011;133;49.626;9.680;2022-11-20T11:12:57;12.80;;;9.37;;
297;SDS011;133;49.626;9.680;2022-11-20T11:15:29;13.13;;;9.23;;
297;SDS011;133;49.626;9.680;2022-11-20T11:18:03;14.60;;;9.40;;
297;SDS011;133;49.626;9.680;2022-11-20T11:20:29;12.60;;;8.93;;
297;SDS011;133;49.626;9.680;2022-11-20T11:22:57;13.13;;;8.57;;
297;SDS011;133;49.626;9.680;2022-11-20T11:28:19;12.57;;;9.87;;
297;SDS011;133;49.626;9.680;2022-11-20T11:30:46;13.23;;;9.80;;
297;SDS011;133;49.626;9.680;2022-11-20T11:35:56;12.87;;;8.80;;
297;SDS011;133;49.626;9.680;2022-11-20T11:38:30;11.87;;;8.70;;
297;SDS011;133;49.626;9.680;2022-11-20T11:41:00;12.90;;;9.30;;
297;SDS011;133;49.626;9.680;2022-11-20T11:43:28;15.27;;;10.33;;
297;SDS011;133;49.626;9.680;2022-11-20T11:46:24;12.80;;;9.40;;
297;SDS011;133;49.626;9.680;2022-11-20T11:51:39;12.37;;;9.00;;
297;SDS011;133;49.626;9.680;2022-11-20T11:54:25;10.27;;;8.37;;
297;SDS011;133;49.626;9.680;2022-11-20T11:56:55;12.40;;;8.80;;
297;SDS011;133;49.626;9.680;2022-11-20T11:59:27;10.57;;;8.70;;
297;SDS011;133;49.626;9.680;2022-11-20T12:02:09;11.73;;;8.97;;
297;SDS011;133;49.626;9.680;2022-11-20T12:05:11;12.90;;;9.97;;
297;SDS011;133;49.626;9.680;2022-11-20T12:08:15;13.47;;;10.10;;
297;SDS011;133;49.626;9.680;2022-11-20T12:11:05;13.53;;;10.30;;
297;SDS011;133;49.626;9.680;2022-11-20T12:13:48;11.40;;;9.33;;
297;SDS011;133;49.626;9.680;2022-11-20T12:16:23;10.63;;;8.57;;
297;SDS011;133;49.626;9.680;2022-11-20T12:18:50;11.80;;;9.40;;
297;SDS011;133;49.626;9.680;2022-11-20T12:21:25;10.93;;;8.77;;
297;SDS011;133;49.626;9.680;2022-11-20T12:29:46;13.83;;;10.50;;
297;SDS011;133;49.626;9.680;2022-11-20T12:37:53;17.80;;;13.90;;
297;SDS011;133;49.626;9.680;2022-11-20T12:43:21;18.37;;;13.90;;
297;SDS011;133;49.626;9.680;2022-11-20T12:51:44;14.03;;;10.70;;
297;SDS011;133;49.626;9.680;2022-11-20T12:57:06;15.47;;;11.73;;
297;SDS011;133;49.626;9.680;2022-11-20T13:05:31;13.77;;;10.97;;
297;SDS011;133;49.626;9.680;2022-11-20T13:08:22;16.90;;;11.43;;
297;SDS011;133;49.626;9.680;2022-11-20T13:10:51;17.10;;;12.83;;
297;SDS011;133;49.626;9.680;2022-11-20T13:13:35;14.50;;;11.07;;
297;SDS011;133;49.626;9.680;2022-11-20T13:16:16;13.87;;;10.50;;
297;SDS011;133;49.626;9.680;2022-11-20T13:18:47;16.17;;;11.83;;
297;SDS011;133;49.626;9.680;2022-11-20T13:21:22;18.70;;;12.17;;
297;SDS011;133;49.626;9.680;2022-11-20T13:24:04;16.00;;;11.10;;
297;SDS011;133;49.626;9.680;2022-11-20T13:29:37;20.60;;;13.83;;
297;SDS011;133;49.626;9.680;2022-11-20T13:32:23;17.27;;;12.30;;
297;SDS011;133;49.626;9.680;2022-11-20T13:35:01;17.20;;;12.20;;
297;SDS011;133;49.626;9.680;2022-11-20T13:37:30;17.00;;;11.60;;
297;SDS011;133;49.626;9.680;2022-11-20T13:42:33;18.20;;;12.80;;
297;SDS011;133;49.626;9.680;2022-11-20T13:45:08;17.83;;;12.83;;
297;SDS011;133;49.626;9.680;2022-11-20T13:47:49;16.47;;;12.50;;
297;SDS011;133;49.626;9.680;2022-11-20T13:50:16;33.00;;;20.57;;
297;SDS011;133;49.626;9.680;2022-11-20T13:52:55;28.13;;;18.07;;
297;SDS011;133;49.626;9.680;2022-11-20T13:55:53;21.63;;;15.00;;
297;SDS011;133;49.626;9.680;2022-11-20T13:58:48;18.70;;;14.13;;
297;SDS011;133;49.626;9.680;2022-11-20T14:01:38;21.07;;;14.90;;
297;SDS011;133;49.626;9.680;2022-11-20T14:04:08;19.60;;;14.30;;
297;SDS011;133;49.626;9.680;2022-11-20T14:06:41;20.40;;;15.50;;
297;SDS011;133;49.626;9.680;2022-11-20T14:09:12;23.73;;;15.20;;
297;SDS011;133;49.626;9.680;2022-11-20T14:11:49;26.03;;;17.30;;
297;SDS011;133;49.626;9.680;2022-11-20T14:14:18;20.50;;;14.83;;
297;SDS011;133;49.626;9.680;2022-11-20T14:16:46;16.70;;;13.10;;
297;SDS011;133;49.626;9.680;2022-11-20T14:21:45;16.10;;;11.27;;
297;SDS011;133;49.626;9.680;2022-11-20T14:24:11;16.53;;;11.07;;
297;SDS011;133;49.626;9.680;2022-11-20T14:26:44;12.87;;;9.77;;
297;SDS011;133;49.626;9.680;2022-11-20T14:29:21;14.90;;;10.30;;
297;SDS011;133;49.626;9.680;2022-11-20T14:31:52;15.33;;;10.50;;
297;SDS011;133;49.626;9.680;2022-11-20T14:34:24;19.30;;;13.60;;
297;SDS011;133;49.626;9.680;2022-11-20T14:36:53;33.43;;;21.37;;
297;SDS011;133;49.626;9.680;2022-11-20T14:39:25;24.70;;;18.13;;
297;SDS011;133;49.626;9.680;2022-11-20T14:41:57;14.73;;;11.23;;
297;SDS011;133;49.626;9.680;2022-11-20T14:44:26;13.00;;;9.33;;
297;SDS011;133;49.626;9.680;2022-11-20T14:47:02;9.67;;;8.57;;
297;SDS011;133;49.626;9.680;2022-11-20T14:49:29;11.17;;;8.20;;
297;SDS011;133;49.626;9.680;2022-11-20T14:52:00;10.27;;;7.87;;
297;SDS011;133;49.626;9.680;2022-11-20T14:54:26;6.00;;;5.40;;
297;SDS011;133;49.626;9.680;2022-11-20T14:56:57;6.00;;;5.20;;
297;SDS011;133;49.626;9.680;2022-11-20T14:59:25;6.27;;;5.20;;
297;SDS011;133;49.626;9.680;2022-11-20T15:01:56;6.17;;;5.33;;
297;SDS011;133;49.626;9.680;2022-11-20T15:04:25;6.50;;;6.10;;
297;SDS011;133;49.626;9.680;2022-11-20T15:06:52;12.40;;;8.80;;
297;SDS011;133;49.626;9.680;2022-11-20T15:09:21;7.50;;;6.80;;
297;SDS011;133;49.626;9.680;2022-11-20T15:12:02;6.07;;;5.80;;
297;SDS011;133;49.626;9.680;2022-11-20T15:14:41;6.80;;;5.73;;
297;SDS011;133;49.626;9.680;2022-11-20T15:17:08;7.50;;;6.43;;
297;SDS011;133;49.626;9.680;2022-11-20T15:19:36;6.97;;;6.10;;
297;SDS011;133;49.626;9.680;2022-11-20T15:22:01;7.37;;;6.97;;
297;SDS011;133;49.626;9.680;2022-11-20T15:24:27;9.20;;;6.83;;
297;SDS011;133;49.626;9.680;2022-11-20T15:26:53;6.63;;;6.33;;
297;SDS011;133;49.626;9.680;2022-11-20T15:29:19;13.60;;;11.13;;
297;SDS011;133;49.626;9.680;2022-11-20T15:31:47;14.57;;;11.70;;
297;SDS011;133;49.626;9.680;2022-11-20T15:34:14;33.13;;;20.30;;
297;SDS011;133;49.626;9.680;2022-11-20T15:36:40;42.13;;;26.70;;
297;SDS011;133;49.626;9.680;2022-11-20T15:39:07;42.60;;;27.20;;
297;SDS011;133;49.626;9.680;2022-11-20T15:41:34;31.90;;;21.83;;
297;SDS011;133;49.626;9.680;2022-11-20T15:44:00;26.33;;;18.63;;
297;SDS011;133;49.626;9.680;2022-11-20T15:46:27;26.07;;;16.87;;
297;SDS011;133;49.626;9.680;2022-11-20T15:48:58;19.83;;;14.43;;
297;SDS011;133;49.626;9.680;2022-11-20T15:51:35;14.40;;;11.23;;
297;SDS011;133;49.626;9.680;2022-11-20T15:54:10;13.37;;;10.20;;
297;SDS011;133;49.626;9.680;2022-11-20T15:56:45;14.23;;;9.70;;
297;SDS011;133;49.626;9.680;2022-11-20T15:59:17;14.10;;;11.03;;
297;SDS011;133;49.626;9.680;2022-11-20T16:01:42;11.00;;;8.77;;
297;SDS011;133;49.626;9.680;2022-11-20T16:04:12;11.47;;;9.70;;
297;SDS011;133;49.626;9.680;2022-11-20T16:06:39;11.90;;;9.07;;
297;SDS011;133;49.626;9.680;2022-11-20T16:09:05;12.87;;;8.17;;
297;SDS011;133;49.626;9.680;2022-11-20T16:11:31;11.70;;;7.50;;
297;SDS011;133;49.626;9.680;2022-11-20T16:13:57;7.47;;;7.00;;
297;SDS011;133;49.626;9.680;2022-11-20T16:16:42;33.23;;;23.00;;
297;SDS011;133;49.626;9.680;2022-11-20T16:19:11;22.93;;;16.37;;
297;SDS011;133;49.626;9.680;2022-11-20T16:21:39;20.80;;;15.37;;
297;SDS011;133;49.626;9.680;2022-11-20T16:24:06;17.53;;;13.30;;
297;SDS011;133;49.626;9.680;2022-11-20T16:26:35;11.57;;;8.10;;
297;SDS011;133;49.626;9.680;2022-11-20T16:29:02;13.20;;;9.63;;
297;SDS011;133;49.626;9.680;2022-11-20T16:31:29;27.50;;;19.47;;
297;SDS011;133;49.626;9.680;2022-11-20T16:33:56;20.00;;;15.10;;
297;SDS011;133;49.626;9.680;2022-11-20T16:36:23;17.00;;;13.70;;
297;SDS011;133;49.626;9.680;2022-11-20T16:38:53;19.93;;;15.33;;
297;SDS011;133;49.626;9.680;2022-11-20T16:41:21;17.10;;;12.43;;
297;SDS011;133;49.626;9.680;2022-11-20T16:43:48;11.57;;;10.10;;
297;SDS011;133;49.626;9.680;2022-11-20T16:46:16;11.70;;;9.83;;
297;SDS011;133;49.626;9.680;2022-11-20T16:48:43;9.90;;;7.73;;
297;SDS011;133;49.626;9.680;2022-11-20T16:51:11;5.77;;;5.00;;
297;SDS011;133;49.626;9.680;2022-11-20T16:53:37;5.03;;;4.47;;
297;SDS011;133;49.626;9.680;2022-11-20T16:56:13;7.80;;;5.20;;
297;SDS011;133;49.626;9.680;2022-11-20T16:58:41;8.30;;;6.37;;
297;SDS011;133;49.626;9.680;2022-11-20T17:01:11;10.53;;;6.60;;
297;SDS011;133;49.626;9.680;2022-11-20T17:03:39;7.37;;;6.60;;